createdAt,value
2017-12-29T00:00:23.074Z,39.7
2017-12-29T00:01:24.449Z,39.7
2017-12-29T00:02:26.075Z,39.6
2017-12-29T00:03:27.972Z,39.6
2017-12-29T00:04:29.590Z,39.6
2017-12-29T00:05:30.636Z,39.7
2017-12-29T00:06:32.234Z,39.7
2017-12-29T00:07:33.590Z,39.8
2017-12-29T00:08:35.486Z,39.7
2017-12-29T00:09:37.380Z,39.7
2017-12-29T00:10:38.701Z,39.7
2017-12-29T00:11:40.317Z,39.7
2017-12-29T00:12:41.659Z,39.9
2017-12-29T00:13:43.558Z,39.7
2017-12-29T00:14:45.454Z,39.6
2017-12-29T00:15:47.075Z,39.6
2017-12-29T00:16:48.971Z,39.9
2017-12-29T00:17:50.287Z,40
2017-12-29T00:18:52.182Z,39.6
2017-12-29T00:19:53.539Z,39.9
2017-12-29T00:20:55.156Z,39.7
2017-12-29T00:21:56.779Z,39.8
2017-12-29T00:22:58.676Z,39.8
2017-12-29T00:24:00.273Z,39.8
2017-12-29T00:25:01.619Z,39.9
2017-12-29T00:26:02.961Z,39.9
2017-12-29T00:27:04.302Z,39.8
2017-12-29T00:28:05.642Z,39.8
2017-12-29T00:29:07.270Z,39.8
2017-12-29T00:30:08.607Z,39.6
2017-12-29T00:31:10.224Z,39.9
2017-12-29T00:32:11.826Z,39.8
2017-12-29T00:33:13.169Z,39.8
2017-12-29T00:34:14.786Z,39.8
2017-12-29T00:35:16.125Z,39.7
2017-12-29T00:36:17.761Z,39.7
2017-12-29T00:37:19.091Z,39.7
2017-12-29T00:38:20.987Z,39.8
2017-12-29T00:39:22.053Z,39.8
2017-12-29T00:40:23.950Z,39.9
2017-12-29T00:41:25.846Z,39.8
2017-12-29T00:42:27.169Z,39.8
2017-12-29T00:43:28.525Z,39.8
2017-12-29T00:44:30.124Z,39.8
2017-12-29T00:45:31.745Z,39.8
2017-12-29T00:46:33.064Z,39.8
2017-12-29T00:47:34.682Z,39.7
2017-12-29T00:48:36.005Z,39.8
2017-12-29T00:49:37.902Z,40
2017-12-29T00:50:39.521Z,39.8
2017-12-29T00:51:41.416Z,39.8
2017-12-29T00:52:42.736Z,39.8
2017-12-29T00:53:44.089Z,40
2017-12-29T00:54:45.986Z,40
2017-12-29T00:55:47.334Z,39.7
2017-12-29T00:56:48.964Z,40
2017-12-29T00:57:50.304Z,39.9
2017-12-29T00:58:52.199Z,39.9
2017-12-29T00:59:54.099Z,39.9
2017-12-29T01:00:55.442Z,39.9
2017-12-29T01:01:57.335Z,39.8
2017-12-29T01:02:58.954Z,39.9
2017-12-29T01:04:00.855Z,39.7
2017-12-29T01:05:02.469Z,39.7
2017-12-29T01:06:04.070Z,39.9
2017-12-29T01:07:05.406Z,40
2017-12-29T01:08:06.722Z,39.8
2017-12-29T01:09:08.344Z,39.9
2017-12-29T01:10:09.659Z,39.7
2017-12-29T01:11:10.986Z,40
2017-12-29T01:12:12.306Z,40
2017-12-29T01:13:14.202Z,40.1
2017-12-29T01:14:15.801Z,39.9
2017-12-29T01:15:17.120Z,39.8
2017-12-29T01:16:19.015Z,39.9
2017-12-29T01:17:20.911Z,39.8
2017-12-29T01:18:22.807Z,39.8
2017-12-29T01:19:24.733Z,39.5
2017-12-29T01:20:26.633Z,39.7
2017-12-29T01:21:27.953Z,40
2017-12-29T01:22:29.298Z,39.7
2017-12-29T01:23:31.194Z,40
2017-12-29T01:24:32.538Z,40
2017-12-29T01:25:34.155Z,39.7
2017-12-29T01:26:35.751Z,39.6
2017-12-29T01:27:37.369Z,40
2017-12-29T01:28:38.986Z,39.9
2017-12-29T01:29:40.605Z,39.9
2017-12-29T01:30:42.501Z,39.8
2017-12-29T01:31:43.840Z,39.8
2017-12-29T01:32:45.459Z,39.7
2017-12-29T01:33:46.780Z,39.9
2017-12-29T01:34:47.842Z,39.6
2017-12-29T01:35:49.437Z,39.6
2017-12-29T01:36:50.756Z,40.1
2017-12-29T01:37:52.384Z,39.8
2017-12-29T01:38:54.043Z,39.5
2017-12-29T01:39:55.384Z,40
2017-12-29T01:40:57.282Z,39.5
2017-12-29T01:41:58.617Z,39.4
2017-12-29T01:43:00.201Z,39.4
2017-12-29T01:44:01.821Z,39.4
2017-12-29T01:45:03.438Z,39.6
2017-12-29T01:46:04.758Z,39.4
2017-12-29T01:47:06.376Z,39.5
2017-12-29T01:48:07.993Z,39.5
2017-12-29T01:49:09.349Z,39.5
2017-12-29T01:50:10.964Z,39.5
2017-12-29T01:51:12.283Z,39.6
2017-12-29T01:52:13.904Z,39.8
2017-12-29T01:53:15.805Z,39.9
2017-12-29T01:54:17.147Z,40
2017-12-29T01:55:19.045Z,39.5
2017-12-29T01:56:20.384Z,39.9
2017-12-29T01:57:22.003Z,39.6
2017-12-29T01:58:23.900Z,40
2017-12-29T01:59:25.569Z,39.7
2017-12-29T02:00:26.910Z,39.7
2017-12-29T02:01:28.527Z,39.7
2017-12-29T02:02:30.421Z,39.7
2017-12-29T02:03:31.764Z,39.6
2017-12-29T02:04:33.105Z,39.8
2017-12-29T02:05:35.000Z,39.5
2017-12-29T02:06:36.320Z,39.8
2017-12-29T02:07:37.936Z,39.8
2017-12-29T02:08:39.552Z,39.8
2017-12-29T02:09:41.148Z,39.3
2017-12-29T02:10:42.766Z,39.6
2017-12-29T02:11:44.661Z,39.7
2017-12-29T02:12:46.279Z,39.3
2017-12-29T02:13:47.629Z,39.6
2017-12-29T02:14:49.525Z,39.5
2017-12-29T02:15:51.118Z,39.5
2017-12-29T02:16:52.733Z,39.6
2017-12-29T02:17:54.352Z,39.5
2017-12-29T02:18:55.947Z,39.8
2017-12-29T02:19:57.566Z,39.9
2017-12-29T02:20:59.184Z,39.9
2017-12-29T02:22:01.081Z,39.7
2017-12-29T02:23:02.422Z,39.6
2017-12-29T02:24:03.761Z,39.4
2017-12-29T02:25:05.377Z,39.7
2017-12-29T02:26:06.442Z,39.4
2017-12-29T02:27:08.355Z,39.6
2017-12-29T02:28:09.971Z,39.5
2017-12-29T02:29:11.590Z,39.5
2017-12-29T02:30:13.481Z,39.6
2017-12-29T02:31:15.100Z,39.4
2017-12-29T02:32:16.719Z,39.4
2017-12-29T02:33:18.057Z,39.7
2017-12-29T02:34:19.652Z,39.2
2017-12-29T02:35:21.548Z,39.5
2017-12-29T02:36:22.868Z,39.7
2017-12-29T02:37:24.463Z,39.6
2017-12-29T02:38:26.060Z,39.4
2017-12-29T02:39:27.680Z,39.5
2017-12-29T02:40:29.002Z,39.6
2017-12-29T02:41:30.616Z,39.4
2017-12-29T02:42:32.233Z,39.5
2017-12-29T02:43:34.129Z,39.6
2017-12-29T02:44:35.449Z,39.6
2017-12-29T02:45:36.786Z,39.6
2017-12-29T02:46:37.825Z,39.7
2017-12-29T02:47:39.147Z,39.6
2017-12-29T02:48:40.208Z,39.4
2017-12-29T02:49:41.826Z,39.8
2017-12-29T02:50:43.723Z,39.4
2017-12-29T02:51:45.040Z,39.6
2017-12-29T02:52:46.383Z,39.4
2017-12-29T02:53:47.698Z,39.5
2017-12-29T02:54:49.351Z,39.5
2017-12-29T02:55:50.968Z,39.7
2017-12-29T02:56:52.863Z,39.4
2017-12-29T02:57:54.759Z,39.5
2017-12-29T02:58:55.820Z,39.4
2017-12-29T02:59:57.161Z,39.6
2017-12-29T03:00:58.756Z,39.3
2017-12-29T03:02:00.653Z,39.4
2017-12-29T03:03:01.993Z,39.3
2017-12-29T03:04:03.649Z,39.6
2017-12-29T03:05:05.264Z,39.4
2017-12-29T03:06:06.607Z,39.4
2017-12-29T03:07:07.648Z,39.4
2017-12-29T03:08:09.266Z,39.4
2017-12-29T03:09:10.936Z,39.7
2017-12-29T03:10:12.830Z,39.4
2017-12-29T03:11:14.447Z,39.4
2017-12-29T03:12:16.111Z,39.5
2017-12-29T03:13:18.007Z,39.5
2017-12-29T03:14:19.905Z,39.3
2017-12-29T03:15:21.521Z,39.3
2017-12-29T03:16:23.139Z,39.4
2017-12-29T03:17:25.034Z,39.3
2017-12-29T03:18:26.929Z,39.4
2017-12-29T03:19:28.545Z,39.4
2017-12-29T03:20:30.141Z,39.3
2017-12-29T03:21:32.035Z,39.5
2017-12-29T03:22:33.930Z,39.5
2017-12-29T03:23:35.546Z,39.6
2017-12-29T03:24:37.166Z,39.5
2017-12-29T03:25:38.221Z,39.6
2017-12-29T03:26:39.858Z,39.6
2017-12-29T03:27:41.195Z,39.5
2017-12-29T03:28:43.091Z,39.6
2017-12-29T03:29:44.708Z,39.5
2017-12-29T03:30:46.304Z,39.5
2017-12-29T03:31:47.918Z,39.6
2017-12-29T03:32:49.234Z,39.5
2017-12-29T03:33:50.848Z,39.2
2017-12-29T03:34:52.191Z,39.4
2017-12-29T03:35:54.084Z,39.3
2017-12-29T03:36:55.401Z,39.5
2017-12-29T03:37:56.724Z,39.5
2017-12-29T03:38:58.620Z,39.2
2017-12-29T03:40:00.216Z,39.4
2017-12-29T03:41:01.533Z,39.4
2017-12-29T03:42:03.456Z,39.2
2017-12-29T03:43:05.073Z,39.2
2017-12-29T03:44:06.693Z,39.5
2017-12-29T03:45:08.588Z,39.1
2017-12-29T03:46:10.204Z,39.4
2017-12-29T03:47:12.098Z,39.2
2017-12-29T03:48:13.996Z,39.4
2017-12-29T03:49:15.615Z,39.2
2017-12-29T03:50:17.233Z,39.3
2017-12-29T03:51:18.827Z,39.2
2017-12-29T03:52:20.441Z,39.2
2017-12-29T03:53:22.059Z,39.2
2017-12-29T03:54:23.654Z,39.4
2017-12-29T03:55:25.271Z,39.3
2017-12-29T03:56:26.886Z,39.1
2017-12-29T03:57:28.777Z,39.3
2017-12-29T03:58:30.441Z,39.4
2017-12-29T03:59:31.780Z,39.2
2017-12-29T04:00:33.698Z,39.3
2017-12-29T04:01:35.591Z,39.1
2017-12-29T04:02:37.485Z,39.3
2017-12-29T04:03:38.804Z,39.4
2017-12-29T04:04:40.439Z,39.6
2017-12-29T04:05:42.049Z,39.4
2017-12-29T04:06:43.644Z,39.2
2017-12-29T04:07:44.430Z,39.2
2017-12-29T04:08:46.326Z,39.3
2017-12-29T04:09:47.666Z,39.2
2017-12-29T04:10:49.558Z,39.3
2017-12-29T04:11:51.452Z,39.4
2017-12-29T04:12:53.091Z,39.2
2017-12-29T04:13:54.435Z,39.2
2017-12-29T04:14:56.053Z,39
2017-12-29T04:15:57.095Z,39.4
2017-12-29T04:16:58.710Z,39.3
2017-12-29T04:18:00.306Z,39.2
2017-12-29T04:19:01.352Z,39.2
2017-12-29T04:20:02.668Z,39
2017-12-29T04:21:03.712Z,39.2
2017-12-29T04:22:04.477Z,39.2
2017-12-29T04:23:06.076Z,39.2
2017-12-29T04:24:07.687Z,39.2
2017-12-29T04:25:09.616Z,39
2017-12-29T04:26:11.234Z,39.4
2017-12-29T04:27:12.280Z,39
2017-12-29T04:28:13.596Z,39
2017-12-29T04:29:14.671Z,39
2017-12-29T04:30:16.024Z,39
2017-12-29T04:31:17.642Z,38.9
2017-12-29T04:32:18.983Z,39
2017-12-29T04:33:20.607Z,38.9
2017-12-29T04:34:22.201Z,38.9
2017-12-29T04:35:23.520Z,39
2017-12-29T04:36:25.140Z,39.5
2017-12-29T04:37:26.757Z,38.9
2017-12-29T04:38:28.651Z,39.4
2017-12-29T04:39:29.975Z,39.4
2017-12-29T04:40:31.873Z,39.1
2017-12-29T04:41:33.190Z,39.5
2017-12-29T04:42:34.806Z,39.1
2017-12-29T04:43:36.403Z,39.4
2017-12-29T04:44:38.035Z,39.1
2017-12-29T04:45:39.929Z,39
2017-12-29T04:46:41.288Z,39.1
2017-12-29T04:47:42.908Z,39.3
2017-12-29T04:48:44.224Z,39
2017-12-29T04:49:46.119Z,39.6
2017-12-29T04:50:47.735Z,39
2017-12-29T04:51:49.631Z,39.1
2017-12-29T04:52:50.951Z,39
2017-12-29T04:53:52.567Z,39.1
2017-12-29T04:54:53.885Z,39.5
2017-12-29T04:55:55.503Z,39.7
2017-12-29T04:56:57.398Z,39.2
2017-12-29T04:57:58.715Z,39.5
2017-12-29T04:59:00.082Z,39.2
2017-12-29T05:00:01.681Z,39.5
2017-12-29T05:01:03.577Z,39.1
2017-12-29T05:02:04.338Z,39.3
2017-12-29T05:03:05.677Z,39.2
2017-12-29T05:04:07.028Z,39.2
2017-12-29T05:05:08.343Z,39.6
2017-12-29T05:06:09.987Z,39.2
2017-12-29T05:07:11.307Z,39.1
2017-12-29T05:08:13.202Z,39
2017-12-29T05:09:14.823Z,39
2017-12-29T05:10:16.716Z,39
2017-12-29T05:11:18.332Z,39.2
2017-12-29T05:12:19.676Z,39
2017-12-29T05:13:21.270Z,39.1
2017-12-29T05:14:23.164Z,39.2
2017-12-29T05:15:25.060Z,39.1
2017-12-29T05:16:26.953Z,39.1
2017-12-29T05:17:28.570Z,39.2
2017-12-29T05:18:29.889Z,39.3
2017-12-29T05:19:31.505Z,39.6
2017-12-29T05:20:33.122Z,39
2017-12-29T05:21:35.019Z,39.5
2017-12-29T05:22:36.911Z,39
2017-12-29T05:23:38.230Z,39.3
2017-12-29T05:24:39.547Z,39
2017-12-29T05:25:41.440Z,39.1
2017-12-29T05:26:42.501Z,39
2017-12-29T05:27:44.404Z,39.4
2017-12-29T05:28:45.992Z,39.2
2017-12-29T05:29:47.331Z,39.1
2017-12-29T05:30:48.952Z,39
2017-12-29T05:31:50.295Z,39
2017-12-29T05:32:51.614Z,39.3
2017-12-29T05:33:53.520Z,39.1
2017-12-29T05:34:55.138Z,39.1
2017-12-29T05:35:56.480Z,39.3
2017-12-29T05:36:57.522Z,39.3
2017-12-29T05:37:59.418Z,39.2
2017-12-29T05:39:00.759Z,39.3
2017-12-29T05:40:02.076Z,39.3
2017-12-29T05:41:03.672Z,39
2017-12-29T05:42:05.067Z,39
2017-12-29T05:43:06.681Z,39.1
2017-12-29T05:44:07.438Z,39
2017-12-29T05:45:08.810Z,39.1
2017-12-29T05:46:10.152Z,39.1
2017-12-29T05:47:12.046Z,39.3
2017-12-29T05:48:13.950Z,39
2017-12-29T05:49:15.582Z,39.1
2017-12-29T05:50:17.188Z,39
2017-12-29T05:51:18.792Z,39.3
2017-12-29T05:52:20.440Z,39.4
2017-12-29T05:53:22.058Z,39.3
2017-12-29T05:54:23.378Z,39.4
2017-12-29T05:55:24.721Z,39
2017-12-29T05:56:26.042Z,39.2
2017-12-29T05:57:27.657Z,39.3
2017-12-29T05:58:28.977Z,39.3
2017-12-29T05:59:30.597Z,39
2017-12-29T06:00:31.640Z,39
2017-12-29T06:01:32.684Z,39.2
2017-12-29T06:02:34.331Z,39.3
2017-12-29T06:03:35.647Z,39.1
2017-12-29T06:04:36.965Z,39.1
2017-12-29T06:05:38.282Z,39.3
2017-12-29T06:06:40.203Z,39.2
2017-12-29T06:07:42.098Z,39.1
2017-12-29T06:08:43.993Z,39.1
2017-12-29T06:09:45.612Z,39.2
2017-12-29T06:10:46.948Z,39.3
2017-12-29T06:11:48.271Z,38.9
2017-12-29T06:12:50.166Z,39.3
2017-12-29T06:13:51.783Z,38.8
2017-12-29T06:14:53.679Z,38.9
2017-12-29T06:15:55.294Z,39
2017-12-29T06:16:56.614Z,39.2
2017-12-29T06:17:57.954Z,39.3
2017-12-29T06:18:59.846Z,39.1
2017-12-29T06:20:01.463Z,39.2
2017-12-29T06:21:03.062Z,39.2
2017-12-29T06:22:04.678Z,39.1
2017-12-29T06:23:05.724Z,39
2017-12-29T06:24:06.759Z,39.1
2017-12-29T06:25:07.798Z,39.1
2017-12-29T06:26:09.692Z,39.1
2017-12-29T06:27:11.009Z,39
2017-12-29T06:28:12.641Z,39.1
2017-12-29T06:29:13.981Z,38.9
2017-12-29T06:30:15.914Z,39
2017-12-29T06:31:17.509Z,39.1
2017-12-29T06:32:19.108Z,39
2017-12-29T06:33:20.704Z,38.7
2017-12-29T06:34:22.055Z,39
2017-12-29T06:35:23.944Z,39.6
2017-12-29T06:36:25.283Z,38.9
2017-12-29T06:37:26.900Z,39
2017-12-29T06:38:28.559Z,39.4
2017-12-29T06:39:30.154Z,38.9
2017-12-29T06:40:32.051Z,39.4
2017-12-29T06:41:33.946Z,38.8
2017-12-29T06:42:35.843Z,38.7
2017-12-29T06:43:36.609Z,39.4
2017-12-29T06:44:37.926Z,38.8
2017-12-29T06:45:39.281Z,38.9
2017-12-29T06:46:41.175Z,38.9
2017-12-29T06:47:42.772Z,38.8
2017-12-29T06:48:44.388Z,38.7
2017-12-29T06:49:45.987Z,38.7
2017-12-29T06:50:47.623Z,38.8
2017-12-29T06:51:49.516Z,38.6
2017-12-29T06:52:51.445Z,39.2
2017-12-29T06:53:52.764Z,38.8
2017-12-29T06:54:54.658Z,39.3
2017-12-29T06:55:56.272Z,39.4
2017-12-29T06:56:57.612Z,38.9
2017-12-29T06:57:59.504Z,38.8
2017-12-29T06:59:01.101Z,38.6
2017-12-29T07:00:02.442Z,38.6
2017-12-29T07:01:04.061Z,38.9
2017-12-29T07:02:05.955Z,39.2
2017-12-29T07:03:07.270Z,39.2
2017-12-29T07:04:08.594Z,39.2
2017-12-29T07:05:10.211Z,39.3
2017-12-29T07:06:11.255Z,38.9
2017-12-29T07:07:12.871Z,38.9
2017-12-29T07:08:14.469Z,38.9
2017-12-29T07:09:16.092Z,39
2017-12-29T07:10:17.132Z,39.2
2017-12-29T07:11:18.472Z,38.7
2017-12-29T07:12:20.088Z,38.6
2017-12-29T07:13:21.704Z,38.7
2017-12-29T07:14:23.022Z,38.7
2017-12-29T07:15:24.925Z,39.2
2017-12-29T07:16:26.259Z,39.2
2017-12-29T07:17:27.876Z,38.7
2017-12-29T07:18:29.497Z,38.8
2017-12-29T07:19:30.537Z,38.7
2017-12-29T07:20:31.577Z,38.6
2017-12-29T07:21:33.200Z,38.7
2017-12-29T07:22:34.516Z,38.6
2017-12-29T07:23:36.411Z,38.6
2017-12-29T07:24:38.032Z,39.3
2017-12-29T07:25:39.358Z,38.7
2017-12-29T07:26:41.256Z,38.7
2017-12-29T07:27:42.874Z,38.6
2017-12-29T07:28:44.502Z,38.8
2017-12-29T07:29:46.398Z,39.3
2017-12-29T07:30:48.017Z,38.8
2017-12-29T07:31:49.638Z,39.3
2017-12-29T07:32:51.235Z,39.1
2017-12-29T07:33:52.888Z,38.7
2017-12-29T07:34:54.793Z,39.1
2017-12-29T07:35:55.849Z,39.1
2017-12-29T07:36:57.466Z,39.1
2017-12-29T07:37:59.084Z,39.1
2017-12-29T07:39:00.426Z,38.7
2017-12-29T07:40:02.024Z,39.1
2017-12-29T07:41:03.362Z,39.1
2017-12-29T07:42:04.980Z,38.7
2017-12-29T07:43:06.878Z,38.7
2017-12-29T07:44:08.215Z,39.1
2017-12-29T07:45:10.113Z,38.7
2017-12-29T07:46:11.729Z,39.1
2017-12-29T07:47:13.625Z,39
2017-12-29T07:48:14.953Z,38.9
2017-12-29T07:49:16.570Z,39.1
2017-12-29T07:50:18.469Z,38.7
2017-12-29T07:51:19.814Z,38.7
2017-12-29T07:52:21.158Z,39
2017-12-29T07:53:23.059Z,39.2
2017-12-29T07:54:24.952Z,38.7
2017-12-29T07:55:26.849Z,39.2
2017-12-29T07:56:28.470Z,38.7
2017-12-29T07:57:30.069Z,39.2
2017-12-29T07:58:31.689Z,38.7
2017-12-29T07:59:32.735Z,38.7
2017-12-29T08:00:34.628Z,38.9
2017-12-29T08:01:36.526Z,39
2017-12-29T08:02:38.145Z,38.6
2017-12-29T08:03:39.765Z,39
2017-12-29T08:04:41.376Z,39
2017-12-29T08:05:42.441Z,39
2017-12-29T08:06:43.781Z,38.9
2017-12-29T08:07:45.679Z,38.5
2017-12-29T08:08:47.296Z,39.1
2017-12-29T08:09:48.619Z,39.1
2017-12-29T08:10:50.233Z,38.9
2017-12-29T08:11:51.558Z,39
2017-12-29T08:12:53.450Z,39.2
2017-12-29T08:13:55.345Z,38.7
2017-12-29T08:14:57.247Z,39
2017-12-29T08:15:59.141Z,38.8
2017-12-29T08:17:00.485Z,38.9
2017-12-29T08:18:01.806Z,38.8
2017-12-29T08:19:03.449Z,38.9
2017-12-29T08:20:05.046Z,38.8
2017-12-29T08:21:06.640Z,39
2017-12-29T08:22:08.257Z,38.8
2017-12-29T08:23:09.602Z,38.8
2017-12-29T08:24:11.268Z,38.9
2017-12-29T08:25:12.883Z,38.8
2017-12-29T08:26:14.779Z,38.8
2017-12-29T08:27:16.378Z,39.2
2017-12-29T08:28:18.274Z,39.1
2017-12-29T08:29:19.667Z,38.6
2017-12-29T08:30:21.323Z,38.7
2017-12-29T08:31:23.225Z,39.1
2017-12-29T08:32:24.838Z,38.7
2017-12-29T08:33:26.174Z,38.7
2017-12-29T08:34:27.497Z,39
2017-12-29T08:35:29.129Z,38.7
2017-12-29T08:36:31.024Z,38.5
2017-12-29T08:37:32.641Z,38.8
2017-12-29T08:38:33.963Z,38.6
2017-12-29T08:39:35.288Z,38.6
2017-12-29T08:40:36.907Z,38.8
2017-12-29T08:41:37.965Z,38.6
2017-12-29T08:42:39.566Z,38.7
2017-12-29T08:43:41.184Z,38.9
2017-12-29T08:44:42.507Z,38.7
2017-12-29T08:45:44.404Z,38.9
2017-12-29T08:46:46.024Z,38.7
2017-12-29T08:47:47.918Z,38.6
2017-12-29T08:48:49.516Z,38.7
2017-12-29T08:49:51.414Z,38.8
2017-12-29T08:50:53.039Z,38.7
2017-12-29T08:51:54.658Z,38.7
2017-12-29T08:52:56.550Z,38.8
2017-12-29T08:53:58.170Z,38.8
2017-12-29T08:54:59.788Z,38.7
2017-12-29T08:56:01.683Z,38.9
2017-12-29T08:57:03.003Z,38.7
2017-12-29T08:58:04.602Z,38.8
2017-12-29T08:59:06.281Z,38.6
2017-12-29T09:00:07.640Z,38.8
2017-12-29T09:01:09.533Z,38.5
2017-12-29T09:02:10.850Z,38.7
2017-12-29T09:03:12.745Z,38.8
2017-12-29T09:04:14.377Z,38.5
2017-12-29T09:05:15.717Z,38.6
2017-12-29T09:06:17.040Z,38.5
2017-12-29T09:07:18.356Z,38.5
2017-12-29T09:08:20.283Z,38.7
2017-12-29T09:09:21.901Z,38.6
2017-12-29T09:10:23.518Z,38.8
2017-12-29T09:11:25.414Z,38.9
2017-12-29T09:12:27.309Z,38.5
2017-12-29T09:13:28.928Z,38.7
2017-12-29T09:14:30.525Z,38.8
2017-12-29T09:15:32.420Z,38.6
2017-12-29T09:16:34.319Z,38.8
2017-12-29T09:17:35.358Z,38.5
2017-12-29T09:18:36.954Z,38.8
2017-12-29T09:19:37.997Z,38.7
2017-12-29T09:20:39.895Z,38.4
2017-12-29T09:21:41.516Z,38.7
2017-12-29T09:22:43.131Z,38.4
2017-12-29T09:23:44.753Z,38.4
2017-12-29T09:24:46.069Z,38.4
2017-12-29T09:25:47.402Z,38.8
2017-12-29T09:26:49.025Z,38.8
2017-12-29T09:27:50.344Z,38.4
2017-12-29T09:28:51.964Z,38.3
2017-12-29T09:29:53.859Z,38.6
2017-12-29T09:30:55.505Z,38.4
2017-12-29T09:31:56.544Z,38.4
2017-12-29T09:32:58.166Z,38.5
2017-12-29T09:33:59.488Z,38.8
2017-12-29T09:35:00.528Z,38.5
2017-12-29T09:36:02.151Z,38.8
2017-12-29T09:37:04.049Z,38.6
2017-12-29T09:38:05.671Z,38.7
2017-12-29T09:39:07.293Z,38.4
2017-12-29T09:40:08.909Z,38.8
2017-12-29T09:41:10.804Z,38.9
2017-12-29T09:42:12.147Z,38.4
2017-12-29T09:43:14.062Z,38.8
2017-12-29T09:44:15.380Z,38.2
2017-12-29T09:45:16.999Z,38.4
2017-12-29T09:46:18.617Z,38.2
2017-12-29T09:47:20.533Z,38.8
2017-12-29T09:48:22.129Z,38.2
2017-12-29T09:49:23.746Z,38.2
2017-12-29T09:50:25.365Z,38.5
2017-12-29T09:51:26.711Z,38.3
2017-12-29T09:52:28.327Z,38.2
2017-12-29T09:53:30.219Z,38.5
2017-12-29T09:54:32.117Z,38.6
2017-12-29T09:55:33.732Z,38.7
2017-12-29T09:56:35.351Z,38.5
2017-12-29T09:57:36.973Z,38.5
2017-12-29T09:58:38.868Z,38.5
2017-12-29T09:59:40.468Z,38.4
2017-12-29T10:00:42.364Z,38.6
2017-12-29T10:01:43.708Z,38.7
2017-12-29T10:02:45.326Z,38.5
2017-12-29T10:03:46.646Z,38.4
2017-12-29T10:04:47.987Z,38.5
2017-12-29T10:05:49.390Z,38.5
2017-12-29T10:06:51.031Z,38.7
2017-12-29T10:07:52.649Z,38.7
2017-12-29T10:08:54.267Z,38.5
2017-12-29T10:09:55.887Z,38.5
2017-12-29T10:10:57.226Z,38.6
2017-12-29T10:11:58.844Z,38.5
2017-12-29T10:13:00.464Z,38.5
2017-12-29T10:14:02.361Z,38.7
2017-12-29T10:15:03.982Z,38.4
2017-12-29T10:16:05.602Z,38.6
2017-12-29T10:17:07.494Z,38.5
2017-12-29T10:18:09.112Z,38.6
2017-12-29T10:19:11.008Z,38.5
2017-12-29T10:20:12.631Z,38.5
2017-12-29T10:21:14.248Z,38.5
2017-12-29T10:22:15.586Z,38.5
2017-12-29T10:23:17.207Z,38.8
2017-12-29T10:24:18.527Z,38.5
2017-12-29T10:25:20.142Z,38.5
2017-12-29T10:26:22.040Z,38.5
2017-12-29T10:27:23.658Z,38.5
2017-12-29T10:28:25.005Z,38.5
2017-12-29T10:29:25.771Z,38.5
2017-12-29T10:30:27.667Z,38.4
2017-12-29T10:31:28.708Z,38.5
2017-12-29T10:32:30.029Z,38.7
2017-12-29T10:33:31.921Z,38.5
2017-12-29T10:34:33.262Z,38.7
2017-12-29T10:35:35.161Z,38.6
2017-12-29T10:36:36.777Z,38.5
2017-12-29T10:37:38.097Z,38.5
2017-12-29T10:38:39.442Z,38.5
2017-12-29T10:39:41.375Z,38.5
2017-12-29T10:40:43.273Z,38.5
2017-12-29T10:41:44.308Z,38.5
2017-12-29T10:42:46.209Z,38.5
2017-12-29T10:43:48.111Z,38.6
2017-12-29T10:44:49.432Z,38.6
2017-12-29T10:45:51.327Z,38.5
2017-12-29T10:46:52.367Z,38.6
2017-12-29T10:47:53.984Z,38.5
2017-12-29T10:48:55.883Z,38.6
2017-12-29T10:49:56.923Z,38.6
2017-12-29T10:50:58.818Z,38.5
2017-12-29T10:52:00.437Z,38.7
2017-12-29T10:53:02.052Z,38.6
2017-12-29T10:54:03.649Z,38.6
2017-12-29T10:55:05.549Z,38.7
2017-12-29T10:56:06.891Z,38.8
2017-12-29T10:57:08.790Z,38.7
2017-12-29T10:58:10.385Z,38.5
2017-12-29T10:59:11.726Z,38.5
2017-12-29T11:00:13.325Z,38.8
2017-12-29T11:01:15.221Z,38.7
2017-12-29T11:02:16.540Z,38.6
2017-12-29T11:03:18.434Z,38.6
2017-12-29T11:04:20.060Z,38.5
2017-12-29T11:05:21.374Z,38.5
2017-12-29T11:06:22.698Z,38.5
2017-12-29T11:07:23.757Z,38.5
2017-12-29T11:08:25.347Z,38.7
2017-12-29T11:09:26.688Z,38.6
2017-12-29T11:10:28.031Z,38.5
2017-12-29T11:11:29.931Z,38.5
2017-12-29T11:12:31.269Z,38.6
2017-12-29T11:13:32.886Z,38.6
2017-12-29T11:14:34.224Z,38.5
2017-12-29T11:15:36.122Z,38.5
2017-12-29T11:16:37.740Z,38.5
2017-12-29T11:17:39.358Z,38.6
2017-12-29T11:18:41.257Z,38.7
2017-12-29T11:19:42.599Z,38.6
2017-12-29T11:20:44.219Z,38.4
2017-12-29T11:21:45.540Z,38.8
2017-12-29T11:22:46.881Z,38.5
2017-12-29T11:23:48.562Z,38.6
2017-12-29T11:24:50.477Z,38.6
2017-12-29T11:25:51.802Z,38.6
2017-12-29T11:26:53.696Z,38.5
2017-12-29T11:27:55.320Z,38.5
2017-12-29T11:28:56.633Z,38.6
2017-12-29T11:29:57.955Z,38.7
2017-12-29T11:30:59.849Z,38.7
2017-12-29T11:32:01.167Z,38.4
2017-12-29T11:33:02.515Z,38.1
2017-12-29T11:34:04.132Z,38.6
2017-12-29T11:35:05.727Z,38.3
2017-12-29T11:36:07.064Z,38.4
2017-12-29T11:37:07.833Z,38
2017-12-29T11:38:09.454Z,38.3
2017-12-29T11:39:10.830Z,38.3
2017-12-29T11:40:12.782Z,38.3
2017-12-29T11:41:14.121Z,38.1
2017-12-29T11:42:15.443Z,38.4
2017-12-29T11:43:17.064Z,38.3
2017-12-29T11:44:18.383Z,38.4
2017-12-29T11:45:20.287Z,38.4
2017-12-29T11:46:21.880Z,38
2017-12-29T11:47:23.497Z,38.5
2017-12-29T11:48:25.139Z,38.4
2017-12-29T11:49:26.454Z,38.6
2017-12-29T11:50:27.218Z,38.2
2017-12-29T11:51:29.114Z,38.3
2017-12-29T11:52:30.712Z,38.5
2017-12-29T11:53:32.331Z,38
2017-12-29T11:54:34.230Z,38.2
2017-12-29T11:55:35.828Z,37.9
2017-12-29T11:56:37.446Z,38.2
2017-12-29T11:57:39.042Z,38.2
2017-12-29T11:58:40.380Z,38.1
2017-12-29T11:59:42.328Z,38.5
2017-12-29T12:00:43.947Z,38.1
2017-12-29T12:01:45.844Z,38.4
2017-12-29T12:02:47.186Z,38.4
2017-12-29T12:03:49.079Z,38.4
2017-12-29T12:04:50.977Z,38.4
2017-12-29T12:05:52.579Z,38.4
2017-12-29T12:06:54.174Z,38.3
2017-12-29T12:07:55.494Z,38.6
2017-12-29T12:08:57.113Z,38.1
2017-12-29T12:09:58.154Z,38.2
2017-12-29T12:11:00.055Z,38
2017-12-29T12:12:01.951Z,38.5
2017-12-29T12:13:03.848Z,38.4
2017-12-29T12:14:05.444Z,38.6
2017-12-29T12:15:06.788Z,38.1
2017-12-29T12:16:07.552Z,38.4
2017-12-29T12:17:09.448Z,38.8
2017-12-29T12:18:11.344Z,38.2
2017-12-29T12:19:13.018Z,38.5
2017-12-29T12:20:14.949Z,38.4
2017-12-29T12:21:16.843Z,38.5
2017-12-29T12:22:18.463Z,38.4
2017-12-29T12:23:20.093Z,38.4
2017-12-29T12:24:21.988Z,38.1
2017-12-29T12:25:23.604Z,38.4
2017-12-29T12:26:25.225Z,38.6
2017-12-29T12:27:27.124Z,38.7
2017-12-29T12:28:28.744Z,38.6
2017-12-29T12:29:30.346Z,38.1
2017-12-29T12:30:31.685Z,38.7
2017-12-29T12:31:32.728Z,38.5
2017-12-29T12:32:34.623Z,38.1
2017-12-29T12:33:35.388Z,38.6
2017-12-29T12:34:36.706Z,38.5
2017-12-29T12:35:38.049Z,38.1
2017-12-29T12:36:39.395Z,38.6
2017-12-29T12:37:41.283Z,38.7
2017-12-29T12:38:42.900Z,38
2017-12-29T12:39:44.518Z,38.3
2017-12-29T12:40:46.115Z,38.6
2017-12-29T12:41:47.733Z,38.5
2017-12-29T12:42:49.353Z,38.1
2017-12-29T12:43:50.672Z,38.4
2017-12-29T12:44:52.570Z,38.2
2017-12-29T12:45:54.183Z,38.3
2017-12-29T12:46:55.524Z,38.7
2017-12-29T12:47:56.864Z,38.4
2017-12-29T12:48:58.463Z,38.4
2017-12-29T12:50:00.361Z,38.5
2017-12-29T12:51:02.253Z,38.2
2017-12-29T12:52:03.593Z,38.7
2017-12-29T12:53:05.488Z,38.6
2017-12-29T12:54:06.824Z,38.4
2017-12-29T12:55:08.170Z,38.3
2017-12-29T12:56:09.234Z,38.1
2017-12-29T12:57:10.832Z,38.5
2017-12-29T12:58:11.600Z,38
2017-12-29T12:59:13.495Z,38.5
2017-12-29T13:00:14.561Z,38.4
2017-12-29T13:01:15.878Z,38.1
2017-12-29T13:02:17.217Z,38.6
2017-12-29T13:03:18.557Z,38.4
2017-12-29T13:04:19.898Z,38.4
2017-12-29T13:05:21.516Z,38.4
2017-12-29T13:06:23.526Z,38.6
2017-12-29T13:07:25.142Z,38.4
2017-12-29T13:08:26.483Z,38.2
2017-12-29T13:09:27.800Z,38.4
2017-12-29T13:10:29.696Z,38.5
2017-12-29T13:11:31.317Z,38.4
2017-12-29T13:12:33.214Z,38.4
2017-12-29T13:13:34.831Z,38.4
2017-12-29T13:14:36.173Z,38.2
2017-12-29T13:15:37.515Z,38.2
2017-12-29T13:16:39.411Z,38.3
2017-12-29T13:17:41.309Z,38.4
2017-12-29T13:18:43.202Z,38.3
2017-12-29T13:19:45.097Z,38.4
2017-12-29T13:20:46.996Z,38.5
2017-12-29T13:21:48.038Z,38.4
2017-12-29T13:22:49.939Z,38.2
2017-12-29T13:23:51.539Z,38.2
2017-12-29T13:24:53.137Z,38.5
2017-12-29T13:25:54.756Z,38.3
2017-12-29T13:26:56.651Z,38.3
2017-12-29T13:27:58.270Z,38.2
2017-12-29T13:28:59.610Z,38.4
2017-12-29T13:30:01.511Z,38.3
2017-12-29T13:31:03.406Z,38.3
2017-12-29T13:32:05.026Z,38.3
2017-12-29T13:33:06.641Z,38.3
2017-12-29T13:34:08.264Z,38.3
2017-12-29T13:35:09.582Z,38.2
2017-12-29T13:36:11.478Z,38.2
2017-12-29T13:37:13.095Z,38.2
2017-12-29T13:38:14.691Z,38.2
2017-12-29T13:39:16.012Z,38.3
2017-12-29T13:40:17.634Z,38.2
2017-12-29T13:41:18.972Z,38.2
2017-12-29T13:42:20.595Z,38.2
2017-12-29T13:43:22.213Z,38.3
2017-12-29T13:44:23.835Z,38.2